Time;durP1;ratioP1;P1;durP2;ratioP2;P2;SDS_P1;SDS_P2;PMS_P1;PMS_P2;Temp;Humidity;BMP_temperature;BMP_pressure;BME280_temperature;BME280_humidity;BME280_pressure;Samples;Min_cycle;Max_cycle;Signal;HPM_P1;HPM_P2
2023/10/26 00:02:54;;;;;;;19.20;15.00;;;;;;;;;;103770;1289;546492;-78
2023/10/26 00:06:42;;;;;;;20.30;14.70;;;;;;;;;;103808;1292;548095;-78
2023/10/26 00:10:20;;;;;;;18.90;14.40;;;;;;;;;;103679;1289;546044;-78
2023/10/26 00:13:57;;;;;;;16.50;13.30;;;;;;;;;;103717;1288;547925;-78
2023/10/26 00:17:35;;;;;;;17.60;13.80;;;;;;;;;;103567;1292;547772;-78
2023/10/26 00:21:13;;;;;;;19.40;14.50;;;;;;;;;;103618;1291;548048;-78
2023/10/26 00:24:50;;;;;;;18.90;14.40;;;;;;;;;;103238;1298;548096;-78
2023/10/26 00:28:27;;;;;;;17.20;13.80;;;;;;;;;;103623;1292;548203;-78
2023/10/26 00:32:06;;;;;;;17.40;13.60;;;;;;;;;;103715;1290;547932;-78
2023/10/26 00:35:42;;;;;;;16.60;12.80;;;;;;;;;;103588;1295;547972;-78
2023/10/26 00:39:14;;;;;;;16.80;11.70;;;;;;;;;;103735;1292;545583;-78
2023/10/26 00:42:58;;;;;;;18.10;13.40;;;;;;;;;;103760;1295;545864;-78
2023/10/26 00:46:50;;;;;;;18.40;13.80;;;;;;;;;;103567;1297;547954;-78
2023/10/26 00:50:12;;;;;;;16.80;13.00;;;;;;;;;;103518;1292;547850;-79
2023/10/26 00:53:50;;;;;;;16.50;12.50;;;;;;;;;;103628;1289;548167;-79
2023/10/26 00:57:23;;;;;;;16.00;12.40;;;;;;;;;;103774;1293;544918;-77
2023/10/26 01:00:59;;;;;;;15.20;11.80;;;;;;;;;;103763;1295;545747;-77
2023/10/26 01:04:37;;;;;;;15.30;12.40;;;;;;;;;;103687;1292;544798;-77
2023/10/26 01:08:10;;;;;;;19.80;15.50;;;;;;;;;;104112;1292;545285;-78
2023/10/26 01:11:55;;;;;;;17.10;14.00;;;;;;;;;;103636;1295;545811;-78
2023/10/26 01:15:36;;;;;;;18.10;13.90;;;;;;;;;;103571;1291;548006;-78
2023/10/26 01:19:14;;;;;;;17.10;12.50;;;;;;;;;;103591;1291;547990;-78
2023/10/26 01:22:51;;;;;;;16.30;12.40;;;;;;;;;;104498;1287;547954;-78
2023/10/26 01:26:29;;;;;;;15.80;12.20;;;;;;;;;;103646;1291;548085;-77
2023/10/26 01:30:06;;;;;;;16.40;11.70;;;;;;;;;;103676;1292;548109;-77
2023/10/26 01:33:40;;;;;;;18.40;12.10;;;;;;;;;;103651;1292;547933;-78
2023/10/26 01:37:15;;;;;;;14.80;11.50;;;;;;;;;;103527;1294;545755;-77
2023/10/26 01:41:13;;;;;;;15.60;11.80;;;;;;;;;;103626;1294;548051;-77
2023/10/26 01:44:31;;;;;;;14.10;10.50;;;;;;;;;;103837;1300;545111;-77
2023/10/26 01:48:09;;;;;;;15.50;11.40;;;;;;;;;;103690;1294;544828;-78
2023/10/26 01:51:45;;;;;;;17.30;12.60;;;;;;;;;;103696;1295;545070;-78
2023/10/26 01:55:23;;;;;;;15.60;12.10;;;;;;;;;;103697;1292;545026;-78
2023/10/26 01:59:03;;;;;;;17.60;13.40;;;;;;;;;;103696;1292;545294;-77
2023/10/26 02:02:46;;;;;;;15.90;11.90;;;;;;;;;;103795;1289;548024;-78
2023/10/26 02:06:21;;;;;;;13.60;11.00;;;;;;;;;;103653;1292;548043;-77
2023/10/26 02:09:52;;;;;;;14.90;10.70;;;;;;;;;;103691;1292;544776;-77
2023/10/26 02:13:36;;;;;;;12.40;9.30;;;;;;;;;;103580;1291;547971;-77
2023/10/26 02:17:08;;;;;;;12.50;9.10;;;;;;;;;;103709;1292;546387;-78
2023/10/26 02:20:45;;;;;;;11.80;7.90;;;;;;;;;;103713;1294;544869;-78
2023/10/26 02:24:28;;;;;;;12.20;8.80;;;;;;;;;;103545;1292;548069;-77
2023/10/26 02:28:05;;;;;;;11.20;7.80;;;;;;;;;;103369;1294;547829;-78
2023/10/26 02:31:33;;;;;;;11.90;8.50;;;;;;;;;;103882;1292;544601;-78
2023/10/26 02:35:22;;;;;;;11.50;8.20;;;;;;;;;;103608;1292;545238;-78
2023/10/26 02:38:50;;;;;;;11.60;8.10;;;;;;;;;;103861;1295;545771;-78
2023/10/26 02:42:38;;;;;;;11.10;8.10;;;;;;;;;;103647;1291;548918;-78
2023/10/26 02:46:14;;;;;;;10.40;7.20;;;;;;;;;;103574;1292;547829;-79
2023/10/26 02:49:52;;;;;;;8.60;5.40;;;;;;;;;;103328;1294;548137;-79
2023/10/26 02:53:24;;;;;;;8.50;4.00;;;;;;;;;;103601;1291;544964;-80
2023/10/26 02:57:07;;;;;;;7.50;3.80;;;;;;;;;;103517;1291;547865;-79
2023/10/26 03:00:44;;;;;;;6.20;3.20;;;;;;;;;;103640;1289;548587;-80
2023/10/26 03:04:22;;;;;;;6.50;3.30;;;;;;;;;;103582;1292;548129;-79
2023/10/26 03:07:54;;;;;;;6.10;3.10;;;;;;;;;;103834;1289;545500;-80
2023/10/26 03:11:37;;;;;;;7.50;3.00;;;;;;;;;;103649;1291;548389;-79
2023/10/26 03:15:14;;;;;;;6.40;3.40;;;;;;;;;;103608;1303;547976;-78
2023/10/26 03:18:52;;;;;;;6.70;3.10;;;;;;;;;;103522;1291;548441;-79
2023/10/26 03:22:29;;;;;;;5.70;2.90;;;;;;;;;;103654;1294;548159;-78
2023/10/26 03:26:09;;;;;;;6.40;3.10;;;;;;;;;;103253;1297;548014;-78
2023/10/26 03:29:40;;;;;;;6.40;3.30;;;;;;;;;;103756;1289;547968;-78
2023/10/26 03:33:21;;;;;;;6.90;3.60;;;;;;;;;;103855;1291;545648;-79
2023/10/26 03:36:53;;;;;;;7.70;3.30;;;;;;;;;;103736;1289;545068;-78
2023/10/26 03:40:31;;;;;;;6.10;3.60;;;;;;;;;;103620;1292;545346;-78
2023/10/26 03:44:14;;;;;;;6.10;3.60;;;;;;;;;;103424;1291;548119;-78
2023/10/26 03:47:51;;;;;;;7.20;3.90;;;;;;;;;;103589;1292;547944;-79
2023/10/26 03:51:23;;;;;;;6.90;4.10;;;;;;;;;;104126;1285;545722;-79
2023/10/26 03:55:08;;;;;;;7.00;3.90;;;;;;;;;;104062;1286;545404;-78
2023/10/26 03:58:38;;;;;;;5.50;3.00;;;;;;;;;;103827;1289;544897;-76
2023/10/26 04:02:16;;;;;;;5.60;2.90;;;;;;;;;;103770;1292;545537;-77
2023/10/26 04:05:53;;;;;;;4.60;2.10;;;;;;;;;;103598;1296;544806;-76
2023/10/26 04:09:36;;;;;;;4.00;2.00;;;;;;;;;;103581;1292;548182;-77
2023/10/26 04:13:14;;;;;;;4.40;1.90;;;;;;;;;;103525;1292;547931;-77
2023/10/26 04:16:49;;;;;;;5.60;2.00;;;;;;;;;;103749;1289;545747;-77
2023/10/26 04:20:23;;;;;;;5.00;2.00;;;;;;;;;;103803;1289;544913;-76
2023/10/26 04:24:06;;;;;;;7.30;3.40;;;;;;;;;;103767;1288;547986;-77
2023/10/26 04:27:38;;;;;;;7.40;3.30;;;;;;;;;;103669;1295;545032;-77
2023/10/26 04:31:15;;;;;;;6.20;3.10;;;;;;;;;;103665;1291;544999;-77
2023/10/26 04:34:59;;;;;;;5.40;3.00;;;;;;;;;;103444;1292;547957;-76
2023/10/26 04:38:36;;;;;;;5.80;2.60;;;;;;;;;;103622;1295;546712;-77
2023/10/26 04:42:13;;;;;;;6.30;3.10;;;;;;;;;;103396;1295;548040;-77
2023/10/26 04:45:51;;;;;;;6.30;2.90;;;;;;;;;;103535;1291;547996;-77
2023/10/26 04:49:28;;;;;;;6.90;3.00;;;;;;;;;;103520;1297;547803;-77
2023/10/26 04:53:02;;;;;;;6.40;2.90;;;;;;;;;;103653;1290;545030;-77
2023/10/26 04:56:38;;;;;;;3.60;1.50;;;;;;;;;;103494;1294;545007;-77
2023/10/26 05:00:15;;;;;;;3.60;1.40;;;;;;;;;;103769;1289;544965;-77
2023/10/26 05:03:53;;;;;;;3.60;1.10;;;;;;;;;;103985;1289;545503;-77
2023/10/26 05:07:30;;;;;;;2.70;1.20;;;;;;;;;;103642;1291;545011;-77
2023/10/26 05:11:07;;;;;;;6.10;1.60;;;;;;;;;;103482;1292;545171;-78
2023/10/26 05:14:50;;;;;;;3.00;1.20;;;;;;;;;;103647;1293;547933;-77
2023/10/26 05:18:28;;;;;;;3.40;1.30;;;;;;;;;;103638;1291;548014;-79
2023/10/26 05:21:59;;;;;;;2.70;1.10;;;;;;;;;;103902;1289;546511;-77
2023/10/26 05:25:43;;;;;;;3.20;1.10;;;;;;;;;;103570;1298;547760;-78
2023/10/26 05:29:21;;;;;;;3.90;1.10;;;;;;;;;;103646;1294;545630;-79
2023/10/26 05:32:52;;;;;;;3.80;1.10;;;;;;;;;;103777;1292;545541;-83
2023/10/26 05:36:35;;;;;;;2.90;1.00;;;;;;;;;;103909;1295;547960;-77
2023/10/26 05:40:08;;;;;;;5.90;1.20;;;;;;;;;;103760;1292;544961;-76
2023/10/26 05:43:48;;;;;;;2.50;0.90;;;;;;;;;;103586;1292;545222;-76
2023/10/26 05:47:23;;;;;;;3.00;0.90;;;;;;;;;;103882;1288;544784;-76
2023/10/26 05:51:05;;;;;;;5.20;1.00;;;;;;;;;;103595;1292;548091;-76
2023/10/26 05:54:36;;;;;;;4.10;1.10;;;;;;;;;;103718;1294;544704;-77
2023/10/26 05:58:14;;;;;;;5.20;1.30;;;;;;;;;;103668;1292;544782;-76
2023/10/26 06:01:56;;;;;;;5.30;2.10;;;;;;;;;;103495;1297;548128;-76
2023/10/26 06:05:29;;;;;;;6.10;1.60;;;;;;;;;;103792;1292;545008;-76
2023/10/26 06:09:07;;;;;;;6.50;1.40;;;;;;;;;;103686;1292;544923;-76
2023/10/26 06:12:50;;;;;;;5.80;2.00;;;;;;;;;;103632;1292;545428;-76
2023/10/26 06:16:22;;;;;;;6.70;1.80;;;;;;;;;;103797;1292;545148;-76
2023/10/26 06:19:59;;;;;;;5.10;1.80;;;;;;;;;;103910;1288;545068;-77
2023/10/26 06:23:36;;;;;;;5.20;1.90;;;;;;;;;;103741;1289;545013;-76
2023/10/26 06:27:14;;;;;;;7.10;2.00;;;;;;;;;;103726;1290;545040;-76
2023/10/26 06:30:52;;;;;;;7.60;2.10;;;;;;;;;;103619;1295;544967;-76
2023/10/26 06:34:25;;;;;;;7.10;2.50;;;;;;;;;;103893;1289;544852;-76
2023/10/26 06:38:10;;;;;;;7.00;2.30;;;;;;;;;;103773;1289;547792;-76
2023/10/26 06:41:45;;;;;;;6.90;2.20;;;;;;;;;;103742;1295;545450;-76
2023/10/26 06:45:19;;;;;;;7.20;2.50;;;;;;;;;;103417;1294;544780;-76
2023/10/26 06:49:06;;;;;;;7.20;2.90;;;;;;;;;;103636;1292;548009;-76
2023/10/26 06:52:44;;;;;;;10.40;2.20;;;;;;;;;;103532;1292;547944;-77
2023/10/26 06:56:21;;;;;;;6.10;1.80;;;;;;;;;;103642;1290;547859;-77
2023/10/26 06:59:54;;;;;;;6.20;2.70;;;;;;;;;;103351;1294;545235;-77
2023/10/26 07:03:36;;;;;;;8.30;4.40;;;;;;;;;;103730;1292;548210;-77
2023/10/26 07:07:08;;;;;;;7.90;4.70;;;;;;;;;;103678;1292;545471;-76
2023/10/26 07:10:53;;;;;;;6.90;3.40;;;;;;;;;;103618;1289;547955;-77
2023/10/26 07:14:23;;;;;;;7.70;2.80;;;;;;;;;;104074;1289;545481;-77
2023/10/26 07:18:00;;;;;;;9.60;2.90;;;;;;;;;;103770;1290;545517;-77
2023/10/26 07:21:44;;;;;;;9.80;3.00;;;;;;;;;;103755;1292;547869;-77
2023/10/26 07:25:15;;;;;;;7.40;2.60;;;;;;;;;;103842;1289;548180;-77
2023/10/26 07:28:58;;;;;;;12.20;5.30;;;;;;;;;;103642;1289;548124;-77
2023/10/26 07:32:55;;;;;;;13.20;6.40;;;;;;;;;;103730;1294;547811;-77
2023/10/26 07:36:13;;;;;;;14.50;5.80;;;;;;;;;;103627;1293;547954;-78
2023/10/26 07:39:50;;;;;;;11.00;3.70;;;;;;;;;;103526;1291;548110;-78
2023/10/26 07:43:23;;;;;;;10.90;3.10;;;;;;;;;;103684;1291;546108;-77
2023/10/26 07:47:08;;;;;;;8.40;3.10;;;;;;;;;;103533;1294;546693;-77
2023/10/26 07:50:43;;;;;;;10.90;3.60;;;;;;;;;;103611;1290;547996;-77
2023/10/26 07:54:20;;;;;;;7.70;2.70;;;;;;;;;;103625;1291;548106;-77
2023/10/26 07:57:58;;;;;;;8.80;3.40;;;;;;;;;;103539;1291;548124;-76
2023/10/26 08:01:30;;;;;;;7.70;2.10;;;;;;;;;;103746;1290;546021;-76
2023/10/26 08:05:09;;;;;;;9.80;2.10;;;;;;;;;;103788;1289;547775;-84
2023/10/26 08:08:52;;;;;;;7.30;1.80;;;;;;;;;;103653;1291;547810;-78
2023/10/26 08:12:28;;;;;;;5.30;1.50;;;;;;;;;;103541;1291;548157;-77
2023/10/26 08:16:00;;;;;;;4.90;1.30;;;;;;;;;;103683;1295;545470;-78
2023/10/26 08:19:38;;;;;;;2.50;1.20;;;;;;;;;;103712;1289;545253;-79
2023/10/26 08:23:17;;;;;;;2.90;1.00;;;;;;;;;;103891;1288;547922;-80
2023/10/26 08:26:54;;;;;;;5.00;1.20;;;;;;;;;;103765;1294;545840;-79
2023/10/26 08:30:37;;;;;;;3.50;1.30;;;;;;;;;;103548;1292;547956;-79
2023/10/26 08:34:13;;;;;;;3.80;1.20;;;;;;;;;;103553;1291;547998;-79
2023/10/26 08:37:47;;;;;;;3.50;1.30;;;;;;;;;;103804;1289;547892;-78
2023/10/26 08:41:22;;;;;;;4.30;1.60;;;;;;;;;;103718;1290;545301;-78
2023/10/26 08:45:10;;;;;;;7.70;3.00;;;;;;;;;;103583;1293;548171;-79
2023/10/26 08:48:43;;;;;;;4.00;1.60;;;;;;;;;;103526;1295;546813;-77
2023/10/26 08:52:21;;;;;;;4.30;1.10;;;;;;;;;;103729;1291;547994;-78
2023/10/26 08:55:52;;;;;;;5.70;1.50;;;;;;;;;;104458;1283;545489;-78
2023/10/26 08:59:29;;;;;;;6.10;1.20;;;;;;;;;;104011;1289;546365;-77
2023/10/26 09:03:07;;;;;;;5.00;1.10;;;;;;;;;;103772;1290;545041;-78
2023/10/26 09:06:44;;;;;;;5.10;1.20;;;;;;;;;;104623;1283;544725;-77
2023/10/26 09:10:33;;;;;;;6.40;1.20;;;;;;;;;;103464;1293;547860;-78
2023/10/26 09:14:18;;;;;;;4.50;1.20;;;;;;;;;;103958;1291;544947;-77
2023/10/26 09:17:42;;;;;;;3.50;1.30;;;;;;;;;;103924;1288;544900;-78
2023/10/26 09:21:20;;;;;;;4.80;1.40;;;;;;;;;;103741;1288;544800;-78
2023/10/26 09:25:05;;;;;;;5.10;1.30;;;;;;;;;;105639;1291;545347;-78
2023/10/26 09:28:54;;;;;;;7.20;1.20;;;;;;;;;;104076;1288;545390;-78
2023/10/26 09:32:18;;;;;;;5.00;1.00;;;;;;;;;;103697;1289;548170;-78
2023/10/26 09:35:51;;;;;;;4.40;1.10;;;;;;;;;;103677;1292;545063;-77
2023/10/26 09:39:28;;;;;;;3.50;1.10;;;;;;;;;;103522;1292;545054;-78
2023/10/26 09:43:05;;;;;;;5.00;1.00;;;;;;;;;;103737;1291;546143;-77
2023/10/26 09:46:42;;;;;;;3.20;0.90;;;;;;;;;;103758;1296;545170;-78
2023/10/26 09:50:25;;;;;;;3.40;0.90;;;;;;;;;;104047;1285;547815;-76
2023/10/26 09:53:58;;;;;;;4.10;1.00;;;;;;;;;;103482;1295;545724;-76
2023/10/26 09:57:33;;;;;;;5.90;1.20;;;;;;;;;;104089;1289;545273;-74
2023/10/26 10:01:42;;;;;;;2.20;0.70;;;;;;;;;;103895;1288;548033;-74
2023/10/26 10:04:49;;;;;;;4.30;1.00;;;;;;;;;;103735;1295;545002;-74
2023/10/26 10:08:45;;;;;;;5.10;1.20;;;;;;;;;;103749;1289;544800;-74
2023/10/26 10:12:04;;;;;;;4.60;1.10;;;;;;;;;;104110;1289;544857;-77
2023/10/26 10:15:42;;;;;;;6.50;1.40;;;;;;;;;;103809;1291;544990;-76
2023/10/26 10:19:26;;;;;;;8.10;1.40;;;;;;;;;;103681;1290;547978;-75
2023/10/26 10:23:00;;;;;;;6.50;1.50;;;;;;;;;;103738;1291;544741;-76
2023/10/26 10:26:57;;;;;;;8.70;3.30;;;;;;;;;;103921;1292;544987;-76
2023/10/26 10:30:12;;;;;;;5.50;1.80;;;;;;;;;;103705;1292;545074;-76
2023/10/26 10:34:00;;;;;;;8.70;2.40;;;;;;;;;;103750;1292;544706;-75
2023/10/26 10:37:26;;;;;;;8.50;2.40;;;;;;;;;;103726;1292;545450;-75
2023/10/26 10:41:05;;;;;;;6.00;1.60;;;;;;;;;;103711;1292;544945;-77
2023/10/26 10:44:41;;;;;;;8.20;1.50;;;;;;;;;;104265;1286;545232;-76
2023/10/26 10:48:19;;;;;;;4.30;1.20;;;;;;;;;;103770;1289;545562;-75
2023/10/26 10:51:53;;;;;;;2.60;0.90;;;;;;;;;;103725;1289;544975;-75
2023/10/26 10:55:36;;;;;;;7.00;1.50;;;;;;;;;;103700;1295;544771;-75
2023/10/26 10:59:20;;;;;;;5.00;1.40;;;;;;;;;;104054;1289;545420;-75
2023/10/26 11:02:52;;;;;;;6.00;1.70;;;;;;;;;;103739;1291;544958;-75
2023/10/26 11:06:28;;;;;;;8.10;1.10;;;;;;;;;;104027;1291;545023;-75
2023/10/26 11:10:05;;;;;;;4.60;1.30;;;;;;;;;;103971;1291;546256;-76
2023/10/26 11:13:43;;;;;;;5.80;1.20;;;;;;;;;;103714;1290;545420;-74
2023/10/26 11:17:22;;;;;;;6.30;1.50;;;;;;;;;;104149;1288;544860;-77
2023/10/26 11:20:54;;;;;;;5.50;1.50;;;;;;;;;;103812;1292;544878;-74
2023/10/26 11:24:35;;;;;;;5.70;1.30;;;;;;;;;;104127;1286;544919;-75
2023/10/26 11:28:13;;;;;;;5.30;1.00;;;;;;;;;;103709;1290;545613;-76
2023/10/26 11:31:51;;;;;;;8.60;1.20;;;;;;;;;;103720;1292;545063;-76
2023/10/26 11:35:41;;;;;;;6.80;1.10;;;;;;;;;;103740;1289;545174;-76
2023/10/26 11:39:05;;;;;;;4.10;1.20;;;;;;;;;;103769;1293;544953;-76
2023/10/26 11:42:53;;;;;;;6.10;1.30;;;;;;;;;;103912;1287;548611;-75
2023/10/26 11:46:35;;;;;;;3.50;1.10;;;;;;;;;;103797;1290;545161;-76
2023/10/26 11:49:57;;;;;;;8.00;1.30;;;;;;;;;;103934;1289;544973;-76
2023/10/26 11:53:35;;;;;;;5.90;1.00;;;;;;;;;;103992;1294;545413;-75
2023/10/26 11:57:12;;;;;;;6.90;1.70;;;;;;;;;;103733;1294;545154;-77
2023/10/26 12:00:50;;;;;;;15.30;2.80;;;;;;;;;;103779;1292;545050;-75
2023/10/26 12:04:24;;;;;;;19.80;3.60;;;;;;;;;;104737;1281;544774;-75
2023/10/26 12:08:06;;;;;;;28.20;3.50;;;;;;;;;;103895;1290;545634;-75
2023/10/26 12:11:46;;;;;;;32.00;3.70;;;;;;;;;;103777;1292;545065;-76
2023/10/26 12:15:22;;;;;;;35.20;5.10;;;;;;;;;;103720;1292;546239;-77
2023/10/26 12:18:55;;;;;;;25.90;3.70;;;;;;;;;;103812;1288;545290;-75
2023/10/26 12:22:37;;;;;;;41.30;5.80;;;;;;;;;;103771;1291;544855;-74
2023/10/26 12:26:14;;;;;;;29.80;4.10;;;;;;;;;;103789;1292;544778;-73
2023/10/26 12:29:51;;;;;;;71.80;10.20;;;;;;;;;;103755;1290;544983;-76
2023/10/26 12:33:29;;;;;;;30.30;4.80;;;;;;;;;;103748;1292;544958;-75
2023/10/26 12:37:07;;;;;;;20.10;3.10;;;;;;;;;;103755;1289;545053;-76
2023/10/26 12:40:44;;;;;;;24.40;6.50;;;;;;;;;;103748;1289;544940;-76
2023/10/26 12:44:24;;;;;;;18.90;4.40;;;;;;;;;;103732;1292;545038;-75
2023/10/26 12:47:59;;;;;;;18.90;2.90;;;;;;;;;;103710;1289;545405;-75
2023/10/26 12:51:37;;;;;;;28.70;3.40;;;;;;;;;;103725;1291;545033;-75
2023/10/26 12:55:14;;;;;;;15.00;1.90;;;;;;;;;;103768;1289;544994;-77
2023/10/26 12:58:52;;;;;;;36.00;3.50;;;;;;;;;;103707;1290;544901;-76
2023/10/26 13:02:29;;;;;;;33.80;3.90;;;;;;;;;;103785;1291;545233;-75
2023/10/26 13:06:06;;;;;;;16.70;2.00;;;;;;;;;;103724;1292;544982;-75
2023/10/26 13:09:44;;;;;;;32.10;4.60;;;;;;;;;;103891;1295;544938;-76
2023/10/26 13:13:21;;;;;;;33.30;3.90;;;;;;;;;;103749;1291;545735;-74
2023/10/26 13:16:59;;;;;;;34.10;4.20;;;;;;;;;;103725;1289;544936;-74
2023/10/26 13:20:32;;;;;;;48.80;6.30;;;;;;;;;;103761;1292;545645;-74
2023/10/26 13:24:16;;;;;;;48.70;6.10;;;;;;;;;;103757;1290;545036;-76
2023/10/26 13:27:53;;;;;;;20.40;2.90;;;;;;;;;;103737;1289;545070;-74
2023/10/26 13:31:31;;;;;;;18.50;2.90;;;;;;;;;;103711;1290;545140;-75
2023/10/26 13:35:14;;;;;;;45.10;7.00;;;;;;;;;;103585;1291;547794;-74
2023/10/26 13:38:47;;;;;;;20.20;3.20;;;;;;;;;;103745;1293;545534;-75
2023/10/26 13:42:23;;;;;;;25.50;5.00;;;;;;;;;;103754;1289;545945;-79
2023/10/26 13:46:04;;;;;;;17.60;3.50;;;;;;;;;;103754;1295;545905;-75
2023/10/26 13:49:40;;;;;;;22.90;4.10;;;;;;;;;;103726;1291;545279;-74
2023/10/26 13:53:15;;;;;;;25.70;4.00;;;;;;;;;;103747;1291;544971;-77
2023/10/26 13:57:08;;;;;;;19.00;4.10;;;;;;;;;;104710;1292;546247;-76
2023/10/26 14:00:30;;;;;;;16.00;5.30;;;;;;;;;;103782;1289;544766;-75
2023/10/26 14:04:08;;;;;;;10.00;3.00;;;;;;;;;;103780;1291;545409;-73
2023/10/26 14:07:46;;;;;;;7.80;1.70;;;;;;;;;;103495;1298;544912;-74
2023/10/26 14:11:24;;;;;;;4.10;1.50;;;;;;;;;;103781;1291;544997;-77
2023/10/26 14:15:01;;;;;;;3.80;1.10;;;;;;;;;;103684;1289;545304;-74
2023/10/26 14:18:37;;;;;;;4.30;0.90;;;;;;;;;;103713;1291;544966;-75
2023/10/26 14:22:15;;;;;;;3.00;0.90;;;;;;;;;;104158;1287;545471;-74
2023/10/26 14:25:49;;;;;;;4.00;1.20;;;;;;;;;;103826;1301;545449;-75
2023/10/26 14:29:29;;;;;;;4.60;1.10;;;;;;;;;;103738;1289;544999;-74
2023/10/26 14:33:08;;;;;;;7.80;3.00;;;;;;;;;;104020;1289;545269;-75
2023/10/26 14:36:44;;;;;;;9.30;4.30;;;;;;;;;;103819;1292;545895;-76
2023/10/26 14:40:23;;;;;;;11.90;6.60;;;;;;;;;;103784;1292;544773;-74
2023/10/26 14:44:00;;;;;;;9.70;4.50;;;;;;;;;;103748;1292;545462;-75
2023/10/26 14:47:37;;;;;;;10.40;5.70;;;;;;;;;;103830;1295;545274;-74
2023/10/26 14:51:15;;;;;;;14.20;8.30;;;;;;;;;;103744;1295;545032;-73
2023/10/26 14:54:52;;;;;;;9.50;4.50;;;;;;;;;;103795;1289;544958;-74
2023/10/26 14:58:30;;;;;;;10.00;3.80;;;;;;;;;;103755;1292;545157;-76
2023/10/26 15:02:07;;;;;;;10.60;3.70;;;;;;;;;;103615;1291;546118;-76
2023/10/26 15:05:50;;;;;;;10.80;5.70;;;;;;;;;;104075;1285;547781;-75
2023/10/26 15:09:22;;;;;;;19.80;9.40;;;;;;;;;;103713;1292;544855;-74
2023/10/26 15:12:59;;;;;;;18.20;8.40;;;;;;;;;;103774;1291;544800;-74
2023/10/26 15:16:37;;;;;;;17.50;7.70;;;;;;;;;;103761;1289;544987;-74
2023/10/26 15:20:15;;;;;;;18.40;7.60;;;;;;;;;;103638;1295;545707;-74
2023/10/26 15:23:52;;;;;;;21.90;9.30;;;;;;;;;;103709;1291;545232;-75
2023/10/26 15:27:25;;;;;;;19.30;9.10;;;;;;;;;;103957;1292;545304;-73
2023/10/26 15:31:07;;;;;;;15.60;7.20;;;;;;;;;;103589;1295;545859;-76
2023/10/26 15:34:47;;;;;;;8.60;3.60;;;;;;;;;;104033;1289;545281;-74
2023/10/26 15:38:18;;;;;;;5.70;2.00;;;;;;;;;;104025;1293;545605;-75
2023/10/26 15:41:59;;;;;;;11.90;5.10;;;;;;;;;;103804;1290;545552;-74
2023/10/26 15:45:36;;;;;;;7.70;3.60;;;;;;;;;;104024;1288;544972;-76
2023/10/26 15:49:14;;;;;;;6.00;2.70;;;;;;;;;;103887;1301;544905;-73
2023/10/26 15:52:52;;;;;;;10.20;5.90;;;;;;;;;;103788;1292;544815;-74
2023/10/26 15:56:29;;;;;;;7.20;3.60;;;;;;;;;;103768;1292;545398;-73
2023/10/26 16:00:09;;;;;;;8.20;3.60;;;;;;;;;;103837;1292;545926;-73
2023/10/26 16:03:44;;;;;;;12.20;6.70;;;;;;;;;;103710;1292;544772;-74
2023/10/26 16:07:18;;;;;;;14.50;8.60;;;;;;;;;;103904;1289;545200;-73
2023/10/26 16:11:00;;;;;;;23.90;12.20;;;;;;;;;;104841;1291;545020;-75
2023/10/26 16:14:33;;;;;;;17.10;8.50;;;;;;;;;;104146;1289;545144;-74
2023/10/26 16:18:14;;;;;;;11.60;6.30;;;;;;;;;;103990;1292;545079;-74
2023/10/26 16:21:52;;;;;;;16.40;10.30;;;;;;;;;;103889;1289;544982;-74
2023/10/26 16:25:33;;;;;;;65.90;36.40;;;;;;;;;;103852;1289;544705;-74
2023/10/26 16:29:02;;;;;;;99.40;55.10;;;;;;;;;;103913;1289;544918;-74
2023/10/26 16:32:43;;;;;;;56.80;33.70;;;;;;;;;;103800;1289;545794;-76
2023/10/26 16:36:25;;;;;;;43.00;26.10;;;;;;;;;;103713;1289;545977;-74
2023/10/26 16:39:59;;;;;;;14.00;7.60;;;;;;;;;;103742;1292;545005;-74
2023/10/26 16:43:33;;;;;;;12.80;7.70;;;;;;;;;;103690;1289;545473;-74
2023/10/26 16:47:14;;;;;;;10.60;6.80;;;;;;;;;;103749;1291;545932;-74
2023/10/26 16:50:55;;;;;;;11.00;4.90;;;;;;;;;;103771;1302;545029;-75
2023/10/26 16:54:29;;;;;;;9.10;4.80;;;;;;;;;;103766;1292;544975;-75
2023/10/26 16:58:06;;;;;;;7.40;3.20;;;;;;;;;;103745;1292;544792;-74
2023/10/26 17:01:43;;;;;;;9.20;4.90;;;;;;;;;;103736;1301;545298;-75
2023/10/26 17:05:22;;;;;;;9.90;4.80;;;;;;;;;;103754;1288;545030;-78
2023/10/26 17:08:59;;;;;;;17.40;10.50;;;;;;;;;;103799;1292;545645;-76
2023/10/26 17:12:32;;;;;;;15.00;8.00;;;;;;;;;;103856;1292;544714;-74
2023/10/26 17:16:16;;;;;;;12.90;6.70;;;;;;;;;;103888;1289;544856;-74
2023/10/26 17:19:51;;;;;;;15.70;8.10;;;;;;;;;;103704;1292;545364;-75
2023/10/26 17:23:28;;;;;;;16.20;10.30;;;;;;;;;;103738;1291;545618;-79
2023/10/26 17:27:06;;;;;;;19.40;11.30;;;;;;;;;;103783;1290;544820;-75
2023/10/26 17:30:43;;;;;;;15.60;8.20;;;;;;;;;;103749;1290;546516;-75
2023/10/26 17:34:20;;;;;;;15.90;8.90;;;;;;;;;;103771;1292;545661;-74
2023/10/26 17:37:58;;;;;;;18.10;10.20;;;;;;;;;;103715;1292;544972;-75
2023/10/26 17:41:36;;;;;;;29.70;15.30;;;;;;;;;;103714;1292;545602;-75
2023/10/26 17:45:14;;;;;;;51.60;26.80;;;;;;;;;;103677;1292;545962;-74
2023/10/26 17:48:56;;;;;;;51.00;24.50;;;;;;;;;;103624;1291;547987;-75
2023/10/26 17:52:28;;;;;;;41.90;20.50;;;;;;;;;;103877;1291;545428;-77
2023/10/26 17:56:02;;;;;;;33.20;20.80;;;;;;;;;;103972;1289;544883;-76
2023/10/26 17:59:43;;;;;;;33.70;23.20;;;;;;;;;;103773;1291;544733;-75
2023/10/26 18:03:20;;;;;;;27.00;14.20;;;;;;;;;;103828;1292;544731;-75
2023/10/26 18:07:18;;;;;;;17.10;9.50;;;;;;;;;;103597;1295;548555;-76
2023/10/26 18:10:35;;;;;;;21.80;11.40;;;;;;;;;;103773;1290;546089;-74
2023/10/26 18:14:13;;;;;;;27.70;15.30;;;;;;;;;;103861;1290;545678;-75
2023/10/26 18:17:50;;;;;;;31.50;16.50;;;;;;;;;;103858;1291;545584;-75
2023/10/26 18:21:24;;;;;;;28.30;14.00;;;;;;;;;;103742;1292;545403;-79
2023/10/26 18:25:10;;;;;;;25.30;12.80;;;;;;;;;;103741;1292;545060;-77
2023/10/26 18:28:44;;;;;;;37.00;17.30;;;;;;;;;;103777;1291;544798;-75
2023/10/26 18:32:22;;;;;;;61.70;27.90;;;;;;;;;;103705;1291;544760;-74
2023/10/26 18:36:00;;;;;;;61.70;26.40;;;;;;;;;;103751;1295;544772;-75
2023/10/26 18:39:37;;;;;;;39.50;18.00;;;;;;;;;;104013;1288;544991;-74
2023/10/26 18:43:15;;;;;;;39.80;19.40;;;;;;;;;;103817;1291;545764;-74
2023/10/26 18:46:55;;;;;;;35.80;18.60;;;;;;;;;;103750;1295;545358;-74
2023/10/26 18:50:29;;;;;;;29.70;15.90;;;;;;;;;;104182;1288;545221;-75
2023/10/26 18:54:07;;;;;;;31.90;17.80;;;;;;;;;;103822;1291;545403;-74
2023/10/26 18:57:40;;;;;;;27.80;16.60;;;;;;;;;;104205;1292;545836;-74
2023/10/26 19:01:22;;;;;;;27.70;16.90;;;;;;;;;;103787;1288;545243;-75
2023/10/26 19:05:00;;;;;;;27.90;15.50;;;;;;;;;;103717;1291;544813;-75
2023/10/26 19:08:37;;;;;;;27.90;14.80;;;;;;;;;;103731;1290;544868;-74
2023/10/26 19:12:14;;;;;;;23.60;12.30;;;;;;;;;;103743;1290;544961;-74
2023/10/26 19:15:48;;;;;;;20.50;10.50;;;;;;;;;;103853;1292;545237;-75
2023/10/26 19:19:29;;;;;;;15.80;8.00;;;;;;;;;;103850;1289;545369;-75
2023/10/26 19:23:06;;;;;;;15.60;7.80;;;;;;;;;;104204;1292;544811;-75
2023/10/26 19:26:44;;;;;;;17.70;8.70;;;;;;;;;;103837;1289;545053;-75
2023/10/26 19:30:25;;;;;;;15.70;8.60;;;;;;;;;;104188;1286;544791;-75
2023/10/26 19:33:59;;;;;;;15.20;8.60;;;;;;;;;;103682;1291;544631;-75
2023/10/26 19:37:37;;;;;;;18.70;10.20;;;;;;;;;;103819;1292;544881;-75
2023/10/26 19:41:16;;;;;;;24.10;13.90;;;;;;;;;;103870;1288;545942;-75
2023/10/26 19:44:52;;;;;;;27.40;15.50;;;;;;;;;;103687;1291;544758;-76
2023/10/26 19:48:29;;;;;;;29.40;17.30;;;;;;;;;;103700;1292;544748;-77
2023/10/26 19:52:09;;;;;;;32.10;17.60;;;;;;;;;;103677;1290;544762;-77
2023/10/26 19:55:44;;;;;;;29.90;17.50;;;;;;;;;;103783;1292;544955;-75
2023/10/26 19:59:17;;;;;;;26.70;16.90;;;;;;;;;;103846;1289;544982;-75
2023/10/26 20:03:14;;;;;;;26.50;15.70;;;;;;;;;;103754;1295;547869;-74
2023/10/26 20:06:37;;;;;;;24.50;14.10;;;;;;;;;;103743;1292;545620;-74
2023/10/26 20:10:13;;;;;;;25.20;15.10;;;;;;;;;;103811;1292;544964;-76
2023/10/26 20:13:52;;;;;;;24.70;15.20;;;;;;;;;;103842;1289;544960;-75
2023/10/26 20:17:31;;;;;;;21.30;12.60;;;;;;;;;;103735;1289;544913;-74
2023/10/26 20:21:07;;;;;;;20.70;11.10;;;;;;;;;;104019;1288;545639;-75
2023/10/26 20:24:47;;;;;;;17.40;11.10;;;;;;;;;;103737;1292;545461;-78
2023/10/26 20:28:21;;;;;;;20.60;11.80;;;;;;;;;;103775;1289;544823;-78
2023/10/26 20:31:58;;;;;;;18.50;11.40;;;;;;;;;;104103;1289;544712;-74
2023/10/26 20:35:36;;;;;;;16.20;9.90;;;;;;;;;;103922;1288;544784;-77
2023/10/26 20:39:13;;;;;;;18.70;11.80;;;;;;;;;;103701;1289;545255;-74
2023/10/26 20:42:51;;;;;;;22.30;10.20;;;;;;;;;;103698;1291;545191;-75
2023/10/26 20:46:28;;;;;;;21.20;12.60;;;;;;;;;;103870;1289;545498;-75
2023/10/26 20:50:06;;;;;;;17.50;10.50;;;;;;;;;;103731;1290;544797;-75